CheckWX is a tool to help pilots better visualize weather data.  It is not intended as a substitute for an official pre-flight weather briefing.

04:46:42 UTC

KSOP METAR
Moore County Airport
Pinehurst/Southern Pines, North Carolina, USA
Current

51 mins ago

KSOP 080356Z AUTO 03005KT 10SM CLR 03/M02 A3042 RMK AO2 SLP308 T00331017
Observed
Dec-8 @ 03:56 UTC
Wind
  • 030° at 5 KTS
Visibility
10 SM
Flight Rules
VFR
Cloud Levels
  • Clear skies
Temperature
C / 37°F
Dewpoint
-2°C / 28°F
Humidity
70%
Altimeter
30.42" Hg
Pressure
1030.12 hPa
Previous

2 hours ago

KSOP 080256Z AUTO 04004KT 10SM CLR 03/M01 A3042 RMK AO2 SLP307 T00331011 51014
Observed
Dec-8 @ 02:56 UTC
Wind
  • 040° at 4 KTS
Visibility
10 SM
Flight Rules
VFR
Cloud Levels
  • Clear skies
Temperature
C / 37°F
Dewpoint
-1°C / 30°F
Humidity
75%
Altimeter
30.42" Hg
Pressure
1030.12 hPa
Previous

3 hours ago

KSOP 080156Z AUTO 05003KT 10SM CLR 04/M01 A3040 RMK AO2 SLP303 T00391006
Observed
Dec-8 @ 01:56 UTC
Wind
  • 050° at 3 KTS
Visibility
10 SM
Flight Rules
VFR
Cloud Levels
  • Clear skies
Temperature
C / 39°F
Dewpoint
-1°C / 30°F
Humidity
70%
Altimeter
30.4" Hg
Pressure
1029.42 hPa